Time;durP1;ratioP1;P1;durP2;ratioP2;P2;SDS_P1;SDS_P2;PMS_P1;PMS_P2;Temp;Humidity;BMP_temperature;BMP_pressure;BME280_temperature;BME280_humidity;BME280_pressure;Samples;Min_cycle;Max_cycle;Signal;HPM_P1;HPM_P2
2022/12/16 00:00:03;;;;;;;0.57;0.57;;;-2.10;99.90;;;;;;5048007;28;20108;-76
2022/12/16 00:02:29;;;;;;;0.50;0.50;;;-2.10;99.90;;;;;;5047125;28;20032;-75
2022/12/16 00:04:56;;;;;;;0.80;0.80;;;-2.10;99.90;;;;;;5029713;28;20017;-75
2022/12/16 00:07:22;;;;;;;0.75;0.75;;;-2.00;99.90;;;;;;5029415;28;20175;-75
2022/12/16 00:09:48;;;;;;;0.40;0.40;;;-2.00;99.90;;;;;;5021325;28;20022;-75
2022/12/16 00:12:13;;;;;;;0.50;0.50;;;-2.00;99.90;;;;;;5046920;28;20021;-76
2022/12/16 00:14:39;;;;;;;1.15;1.15;;;-2.00;99.90;;;;;;5022889;28;20120;-75
2022/12/16 00:17:04;;;;;;;0.70;0.70;;;-1.90;99.90;;;;;;5040833;28;20100;-76
2022/12/16 00:19:30;;;;;;;0.40;0.40;;;-1.90;99.90;;;;;;5029690;28;20038;-75
2022/12/16 00:21:56;;;;;;;0.40;0.40;;;-1.90;99.90;;;;;;5046562;28;20021;-75
2022/12/16 00:24:21;;;;;;;0.50;0.50;;;-1.90;99.90;;;;;;5016617;28;20439;-76
2022/12/16 00:26:47;;;;;;;0.88;0.88;;;-1.90;99.90;;;;;;5028357;28;20029;-76
2022/12/16 00:29:13;;;;;;;1.73;1.25;;;-1.90;99.90;;;;;;5022383;28;20078;-76
2022/12/16 00:31:38;;;;;;;0.50;0.50;;;-1.90;99.90;;;;;;5037782;28;20032;-77
2022/12/16 00:34:04;;;;;;;0.63;0.63;;;-1.80;99.90;;;;;;5024476;28;20087;-77
2022/12/16 00:36:29;;;;;;;0.40;0.40;;;-1.80;99.90;;;;;;5041453;28;20116;-76
2022/12/16 00:38:55;;;;;;;0.47;0.47;;;-1.80;99.90;;;;;;5015728;28;20120;-75
2022/12/16 00:41:21;;;;;;;0.50;0.50;;;-1.80;99.90;;;;;;5045435;28;20372;-75
2022/12/16 00:43:46;;;;;;;0.40;0.40;;;-1.80;99.90;;;;;;5035065;28;20549;-75
2022/12/16 00:46:12;;;;;;;0.50;0.50;;;-1.80;99.90;;;;;;5033440;28;20018;-75
2022/12/16 00:48:38;;;;;;;0.85;0.68;;;-1.80;99.90;;;;;;5045479;28;20026;-75
2022/12/16 00:51:04;;;;;;;0.50;0.50;;;-1.80;99.90;;;;;;5023563;28;20021;-75
2022/12/16 00:53:29;;;;;;;2.95;1.10;;;-1.80;99.90;;;;;;5037828;28;20021;-75
2022/12/16 00:56:09;;;;;;;0.52;0.52;;;-1.80;99.90;;;;;;5041675;28;20032;-76
2022/12/16 00:58:35;;;;;;;0.50;0.50;;;-1.80;99.90;;;;;;5026915;28;20493;-76
2022/12/16 01:01:00;;;;;;;0.43;0.43;;;-1.90;99.90;;;;;;5039805;28;20048;-76
2022/12/16 01:03:26;;;;;;;0.50;0.50;;;-1.80;99.90;;;;;;5028307;28;20605;-75
2022/12/16 01:05:52;;;;;;;0.85;0.85;;;-1.80;99.90;;;;;;5028563;28;20021;-75
2022/12/16 01:08:17;;;;;;;1.13;1.10;;;-1.80;99.90;;;;;;5045741;28;20037;-76
2022/12/16 01:10:52;;;;;;;0.40;0.40;;;-1.80;99.90;;;;;;5015185;28;20025;-75
2022/12/16 01:13:19;;;;;;;0.40;0.40;;;-1.80;99.90;;;;;;5020217;28;20028;-75
2022/12/16 01:15:45;;;;;;;0.55;0.55;;;-1.80;99.90;;;;;;5032799;28;20025;-75
2022/12/16 01:18:10;;;;;;;0.50;0.50;;;-1.80;99.90;;;;;;5023403;28;20059;-75
2022/12/16 01:20:37;;;;;;;0.90;0.90;;;-1.70;99.90;;;;;;5037470;28;20395;-75
2022/12/16 01:23:02;;;;;;;0.68;0.68;;;-1.70;99.90;;;;;;5032462;28;20105;-75
2022/12/16 01:25:28;;;;;;;0.73;0.73;;;-1.60;99.90;;;;;;5028266;28;20484;-75
2022/12/16 01:27:53;;;;;;;0.40;0.40;;;-1.60;99.90;;;;;;5040732;28;20641;-75
2022/12/16 01:30:19;;;;;;;1.48;1.38;;;-1.60;99.90;;;;;;5021457;28;20483;-75
2022/12/16 01:32:45;;;;;;;1.10;1.10;;;-1.60;99.90;;;;;;5044334;28;20088;-76
2022/12/16 01:35:10;;;;;;;0.50;0.50;;;-1.60;99.90;;;;;;5045920;28;20040;-75
2022/12/16 01:37:36;;;;;;;1.60;1.10;;;-1.60;99.90;;;;;;5018944;28;20395;-75
2022/12/16 01:40:01;;;;;;;1.83;1.13;;;-1.50;99.90;;;;;;5033262;28;20484;-75
2022/12/16 01:42:29;;;;;;;0.55;0.55;;;-1.60;99.90;;;;;;5044757;28;20026;-75
2022/12/16 01:44:55;;;;;;;0.40;0.40;;;-1.50;99.90;;;;;;5045777;28;20104;-75
2022/12/16 01:47:29;;;;;;;0.50;0.50;;;-1.50;99.90;;;;;;5040012;28;20497;-75
2022/12/16 01:50:03;;;;;;;0.30;0.30;;;-1.60;99.90;;;;;;5035698;28;20088;-76
2022/12/16 01:52:35;;;;;;;0.47;0.47;;;-1.60;99.90;;;;;;5024444;28;20017;-75
2022/12/16 01:55:19;;;;;;;0.68;0.68;;;-1.60;99.90;;;;;;5039241;28;20039;-76
2022/12/16 01:57:50;;;;;;;5.13;1.38;;;-1.60;99.90;;;;;;5038752;28;20041;-76
2022/12/16 02:00:16;;;;;;;2.25;1.67;;;-1.60;99.90;;;;;;5008778;28;20025;-76
2022/12/16 02:02:43;;;;;;;0.60;0.60;;;-1.60;99.90;;;;;;5038744;28;20089;-76
2022/12/16 02:05:19;;;;;;;0.40;0.40;;;-1.60;99.90;;;;;;5026856;28;20022;-76
2022/12/16 02:08:12;;;;;;;0.50;0.50;;;-1.60;99.90;;;;;;5031800;28;20029;-76
2022/12/16 02:10:41;;;;;;;0.73;0.73;;;-1.70;99.90;;;;;;5028859;28;20099;-76
2022/12/16 02:13:25;;;;;;;0.40;0.40;;;-1.60;99.90;;;;;;5024528;28;20116;-75
2022/12/16 02:16:31;;;;;;;0.40;0.40;;;-1.60;99.90;;;;;;5038389;28;20107;-75
2022/12/16 02:19:48;;;;;;;1.48;1.38;;;-1.60;99.90;;;;;;5002770;28;20079;-75
2022/12/16 02:22:44;;;;;;;0.50;0.50;;;-1.60;99.90;;;;;;5027478;28;20482;-76
2022/12/16 02:25:28;;;;;;;0.40;0.40;;;-1.60;99.90;;;;;;5044435;28;20764;-76
2022/12/16 02:28:04;;;;;;;0.30;0.30;;;-1.60;99.90;;;;;;5028124;28;20155;-76
2022/12/16 02:30:50;;;;;;;0.45;0.45;;;-1.60;99.90;;;;;;5038202;28;20025;-76
2022/12/16 02:33:19;;;;;;;;;;;-1.60;99.90;;;;;;5039758;28;20014;-77
2022/12/16 02:35:56;;;;;;;1.15;1.15;;;-1.60;99.90;;;;;;5027261;28;19963;-76
2022/12/16 02:38:35;;;;;;;0.82;0.82;;;-1.60;99.90;;;;;;5044477;28;20036;-74
2022/12/16 02:41:03;;;;;;;0.32;0.32;;;-1.60;99.90;;;;;;5041121;28;20400;-75
2022/12/16 02:43:54;;;;;;;0.57;0.52;;;-1.70;99.90;;;;;;5037949;28;20087;-74
2022/12/16 02:46:25;;;;;;;0.50;0.50;;;-1.70;99.90;;;;;;5038432;28;20570;-75
2022/12/16 02:48:50;;;;;;;1.08;0.82;;;-1.70;99.90;;;;;;5031359;28;20025;-75
2022/12/16 02:51:17;;;;;;;0.68;0.68;;;-1.70;99.90;;;;;;5031480;28;20475;-74
2022/12/16 02:53:44;;;;;;;1.25;1.15;;;-1.70;99.90;;;;;;5026956;28;20032;-74
2022/12/16 02:56:42;;;;;;;0.50;0.50;;;-1.70;99.90;;;;;;5044914;28;20025;-76
2022/12/16 02:59:19;;;;;;;3.67;1.85;;;-1.70;99.90;;;;;;5042569;28;20074;-75
2022/12/16 03:02:23;;;;;;;0.68;0.68;;;-1.70;99.90;;;;;;5038056;28;20100;-76
2022/12/16 03:05:01;;;;;;;0.40;0.40;;;-1.80;99.90;;;;;;5038003;28;20106;-76
2022/12/16 03:07:30;;;;;;;0.60;0.60;;;-1.80;99.90;;;;;;5036765;28;20022;-77
2022/12/16 03:09:58;;;;;;;1.48;0.98;;;-1.90;99.90;;;;;;5030309;28;20108;-76
2022/12/16 03:12:24;;;;;;;0.50;0.50;;;-2.00;99.90;;;;;;5048038;28;20032;-76
2022/12/16 03:14:52;;;;;;;1.10;1.05;;;-2.00;99.90;;;;;;5043093;28;20557;-76
2022/12/16 03:17:21;;;;;;;1.55;1.50;;;-2.00;99.90;;;;;;5052953;28;20021;-76
2022/12/16 03:19:56;;;;;;;3.05;2.70;;;-2.00;99.90;;;;;;5034916;28;20461;-76
2022/12/16 03:22:26;;;;;;;1.05;1.05;;;-2.10;99.90;;;;;;5040204;28;20032;-76
2022/12/16 03:24:53;;;;;;;1.02;1.02;;;-2.10;99.90;;;;;;5044116;28;20033;-76
2022/12/16 03:27:27;;;;;;;0.73;0.73;;;-2.10;99.90;;;;;;5047955;28;20087;-76
2022/12/16 03:30:06;;;;;;;4.80;2.87;;;-2.10;99.90;;;;;;5047072;28;20024;-76
2022/12/16 03:32:50;;;;;;;0.40;0.40;;;-2.10;99.90;;;;;;5028593;28;20286;-77
2022/12/16 03:35:32;;;;;;;0.50;0.50;;;-2.10;99.90;;;;;;5023743;28;20036;-76
2022/12/16 03:37:59;;;;;;;0.55;0.55;;;-2.10;99.90;;;;;;5042626;28;20080;-75
2022/12/16 03:40:27;;;;;;;0.50;0.50;;;-2.10;99.90;;;;;;5030148;28;20025;-77
2022/12/16 03:42:53;;;;;;;0.50;0.50;;;-2.20;99.90;;;;;;5046716;28;20032;-75
2022/12/16 03:45:24;;;;;;;2.97;2.78;;;-2.20;99.90;;;;;;5035573;28;20017;-76
2022/12/16 03:47:51;;;;;;;0.50;0.50;;;-2.20;99.90;;;;;;5040144;28;20484;-76
2022/12/16 03:50:25;;;;;;;0.65;0.65;;;-2.20;99.90;;;;;;5030152;28;20036;-77
2022/12/16 03:52:50;;;;;;;0.50;0.50;;;-2.20;99.90;;;;;;5030171;28;20021;-75
2022/12/16 03:55:16;;;;;;;1.20;0.70;;;-2.30;99.90;;;;;;5034242;28;20475;-75
2022/12/16 03:57:41;;;;;;;0.77;0.77;;;-2.30;99.90;;;;;;5047306;28;20028;-76
2022/12/16 04:00:08;;;;;;;1.35;1.27;;;-2.30;99.90;;;;;;5034232;28;20025;-76
2022/12/16 04:02:33;;;;;;;1.75;1.65;;;-2.30;99.90;;;;;;5034714;28;20017;-76
2022/12/16 04:04:59;;;;;;;0.50;0.50;;;-2.20;99.90;;;;;;5047118;28;20026;-76
2022/12/16 04:07:24;;;;;;;0.70;0.70;;;-2.20;99.90;;;;;;5029458;28;20027;-75
2022/12/16 04:09:51;;;;;;;0.65;0.65;;;-2.10;99.90;;;;;;5034272;28;20426;-74
2022/12/16 04:26:21;;;;;;;2.47;1.83;;;-2.10;99.90;;;;;;5023182;28;20080;-77
2022/12/16 04:28:46;;;;;;;3.22;2.25;;;-2.10;99.90;;;;;;5049151;28;20036;-77
2022/12/16 04:31:12;;;;;;;7.22;2.25;;;-2.10;99.90;;;;;;5044854;28;20025;-75
